Time;durP1;ratioP1;P1;durP2;ratioP2;P2;SDS_P1;SDS_P2;PMS_P1;PMS_P2;Temp;Humidity;BMP_temperature;BMP_pressure;BME280_temperature;BME280_humidity;BME280_pressure;Samples;Min_cycle;Max_cycle;Signal;HPM_P1;HPM_P2
2022/04/01 00:00:22;;;;;;;7.10;4.82;;;;;;;0.65;100.00;100285.16;5009760;28;20155;-46
2022/04/01 00:02:47;;;;;;;6.28;4.30;;;;;;;0.65;100.00;100270.22;4994993;28;20099;-46
2022/04/01 00:05:13;;;;;;;9.43;4.03;;;;;;;0.63;100.00;100276.53;4994821;28;20093;-48
2022/04/01 00:07:42;;;;;;;6.53;4.20;;;;;;;0.62;100.00;100275.69;4996353;28;20484;-46
2022/04/01 00:10:09;;;;;;;8.23;4.10;;;;;;;0.62;100.00;100280.94;4995719;28;20129;-47
2022/04/01 00:12:46;;;;;;;6.60;4.28;;;;;;;0.50;100.00;100274.78;5010478;28;20152;-47
2022/04/01 00:15:12;;;;;;;5.38;3.90;;;;;;;0.60;100.00;100289.91;5007404;28;20074;-46
2022/04/01 00:17:38;;;;;;;6.18;3.80;;;;;;;0.47;100.00;100287.31;5014807;28;20068;-46
2022/04/01 00:20:04;;;;;;;5.78;4.13;;;;;;;0.49;100.00;100295.91;5014966;28;20377;-47
2022/04/01 00:22:29;;;;;;;6.32;3.80;;;;;;;0.44;100.00;100298.88;5014473;28;20045;-46
2022/04/01 00:24:55;;;;;;;6.28;3.95;;;;;;;0.46;100.00;100302.25;5015009;28;20372;-45
2022/04/01 00:27:20;;;;;;;6.05;4.05;;;;;;;0.46;100.00;100293.50;5015761;28;20399;-46
2022/04/01 00:29:48;;;;;;;5.63;3.67;;;;;;;0.44;100.00;100295.41;5012985;28;20397;-46
2022/04/01 00:32:14;;;;;;;5.88;3.45;;;;;;;0.46;100.00;100301.38;5014454;28;20033;-46
2022/04/01 00:34:40;;;;;;;6.82;3.72;;;;;;;0.47;100.00;100303.91;5014468;28;20010;-47
2022/04/01 00:37:05;;;;;;;6.20;4.05;;;;;;;0.48;100.00;100297.72;5015136;28;20397;-45
2022/04/01 00:39:31;;;;;;;5.25;3.80;;;;;;;0.49;100.00;100296.78;5015141;28;20426;-44
2022/04/01 00:41:58;;;;;;;5.53;3.85;;;;;;;0.49;100.00;100296.78;5014925;28;20337;-44
2022/04/01 00:44:32;;;;;;;7.10;3.65;;;;;;;0.47;100.00;100300.44;5013206;28;20037;-45
2022/04/01 00:47:05;;;;;;;7.47;4.13;;;;;;;0.44;100.00;100298.03;5011190;28;20463;-47
2022/04/01 00:49:32;;;;;;;6.78;4.00;;;;;;;0.46;100.00;100293.50;5014573;28;20013;-45
2022/04/01 00:52:00;;;;;;;6.38;4.20;;;;;;;0.40;100.00;100299.22;5014752;28;20306;-45
2022/04/01 00:54:26;;;;;;;7.18;4.18;;;;;;;0.32;100.00;100300.59;5014641;28;20021;-45
2022/04/01 00:56:52;;;;;;;6.53;4.07;;;;;;;0.29;100.00;100306.06;5015333;28;20113;-45
2022/04/01 00:59:18;;;;;;;7.47;4.10;;;;;;;0.19;100.00;100299.78;5015105;28;20065;-48
2022/04/01 01:01:44;;;;;;;5.63;4.20;;;;;;;0.18;100.00;100306.81;5014168;28;20124;-47
2022/04/01 01:04:13;;;;;;;5.70;3.95;;;;;;;0.14;100.00;100313.22;5013493;28;20029;-44
2022/04/01 01:06:41;;;;;;;6.10;4.32;;;;;;;0.15;100.00;100316.69;5015537;28;20498;-46
2022/04/01 01:09:07;;;;;;;6.32;4.40;;;;;;;0.13;100.00;100310.69;5015360;28;20021;-48
2022/04/01 01:11:36;;;;;;;5.97;4.50;;;;;;;0.09;100.00;100312.72;5015272;28;20029;-45
2022/04/01 01:14:08;;;;;;;8.02;4.63;;;;;;;0.10;100.00;100318.78;5014644;28;20017;-46
2022/04/01 01:16:34;;;;;;;6.95;4.68;;;;;;;0.11;100.00;100320.47;5013534;28;20029;-48
2022/04/01 01:19:18;;;;;;;8.75;4.78;;;;;;;0.08;100.00;100297.88;5007293;28;20538;-46
2022/04/01 01:21:49;;;;;;;8.93;4.80;;;;;;;0.13;100.00;100315.97;5015089;28;20033;-48
2022/04/01 01:24:15;;;;;;;7.70;4.88;;;;;;;0.12;100.00;100322.13;5014504;28;20025;-49
2022/04/01 01:26:44;;;;;;;9.38;4.20;;;;;;;0.13;100.00;100315.97;5014986;28;20068;-48
2022/04/01 01:29:10;;;;;;;6.40;4.10;;;;;;;0.12;100.00;100319.50;5014844;28;20288;-48
2022/04/01 01:31:36;;;;;;;6.55;4.32;;;;;;;0.11;100.00;100317.84;5013633;28;20139;-48
2022/04/01 01:34:02;;;;;;;6.25;4.63;;;;;;;0.11;100.00;100317.84;5012323;28;20427;-50
2022/04/01 01:36:30;;;;;;;6.32;4.57;;;;;;;0.10;100.00;100313.53;5014284;28;20061;-47
2022/04/01 01:38:55;;;;;;;6.10;4.32;;;;;;;0.12;100.00;100325.63;5014882;28;20033;-47
2022/04/01 01:41:21;;;;;;;5.35;4.38;;;;;;;0.15;100.00;100322.78;5014506;28;20416;-47
2022/04/01 01:43:47;;;;;;;5.78;4.68;;;;;;;0.16;100.00;100328.88;5014964;28;20029;-48
2022/04/01 01:46:13;;;;;;;6.85;4.13;;;;;;;0.19;100.00;100331.28;5012778;28;20029;-44
2022/04/01 01:48:39;;;;;;;5.68;4.20;;;;;;;0.22;100.00;100338.09;5012949;28;20029;-46
2022/04/01 01:56:32;;;;;;;7.03;4.90;;;;;;;0.22;100.00;100330.22;5012924;28;20103;-45
2022/04/01 01:58:58;;;;;;;7.38;4.30;;;;;;;0.22;100.00;100336.34;5012657;28;20472;-47
2022/04/01 02:01:24;;;;;;;6.25;4.22;;;;;;;0.17;100.00;100327.91;5012715;28;20113;-46
2022/04/01 02:03:49;;;;;;;8.18;4.60;;;;;;;0.20;100.00;100332.94;5012824;28;20246;-45
2022/04/01 02:06:15;;;;;;;6.03;4.10;;;;;;;0.18;100.00;100348.81;5013252;28;20092;-46
2022/04/01 02:08:40;;;;;;;6.35;4.57;;;;;;;0.16;100.00;100336.75;5013798;28;20462;-45
2022/04/01 02:11:07;;;;;;;6.28;4.43;;;;;;;0.16;100.00;100342.84;5013965;28;20025;-49
2022/04/01 02:13:33;;;;;;;5.35;4.47;;;;;;;0.12;100.00;100343.16;5013603;28;20105;-45
2022/04/01 02:15:59;;;;;;;6.22;4.63;;;;;;;0.14;100.00;100339.47;5011750;28;20108;-44
2022/04/01 02:18:25;;;;;;;8.45;4.75;;;;;;;0.13;100.00;100350.09;5011956;28;20040;-46
2022/04/01 02:20:50;;;;;;;5.32;4.22;;;;;;;0.15;100.00;100345.56;5013084;28;20033;-47
2022/04/01 02:23:16;;;;;;;5.93;4.63;;;;;;;0.15;100.00;100350.81;5013461;28;20432;-47
2022/04/01 02:25:42;;;;;;;6.10;5.03;;;;;;;0.14;100.00;100349.16;5013469;28;20017;-45
2022/04/01 02:28:08;;;;;;;6.07;4.57;;;;;;;0.15;100.00;100356.06;5012369;28;20068;-46
2022/04/01 02:30:33;;;;;;;5.95;4.65;;;;;;;0.16;100.00;100355.97;5012574;28;20017;-46
2022/04/01 02:32:59;;;;;;;7.00;4.88;;;;;;;0.11;100.00;100352.81;5012716;28;20037;-45
2022/04/01 02:35:24;;;;;;;9.70;5.47;;;;;;;0.16;100.00;100363.00;5012921;28;20033;-47
2022/04/01 02:37:49;;;;;;;8.82;5.65;;;;;;;0.13;100.00;100358.78;5011250;28;20068;-45
2022/04/01 02:40:15;;;;;;;9.52;5.53;;;;;;;0.13;100.00;100368.47;5013028;28;20100;-48
2022/04/01 02:42:41;;;;;;;6.63;5.60;;;;;;;0.17;100.00;100370.78;5013970;28;20033;-46
2022/04/01 02:45:06;;;;;;;7.15;5.43;;;;;;;0.11;100.00;100370.38;5013587;28;20623;-44
2022/04/01 02:47:32;;;;;;;7.53;5.35;;;;;;;0.13;100.00;100376.34;5016234;28;20101;-46
2022/04/01 02:49:57;;;;;;;6.18;4.95;;;;;;;0.16;100.00;100370.88;5016083;28;20311;-47
2022/04/01 02:52:23;;;;;;;7.97;5.45;;;;;;;0.20;100.00;100374.97;5016965;28;20040;-46
2022/04/01 02:54:48;;;;;;;6.70;5.43;;;;;;;0.15;100.00;100377.94;5017216;28;20080;-48
2022/04/01 02:57:13;;;;;;;7.28;5.47;;;;;;;0.15;100.00;100380.56;5015681;28;20035;-49
2022/04/01 02:59:38;;;;;;;7.35;5.55;;;;;;;0.14;100.00;100378.03;5017651;28;20407;-50
2022/04/01 03:02:04;;;;;;;7.45;5.30;;;;;;;0.14;100.00;100378.88;5015653;28;20112;-44
2022/04/01 03:04:29;;;;;;;6.47;4.90;;;;;;;0.16;100.00;100387.47;5015562;28;20200;-46
2022/04/01 03:06:55;;;;;;;7.57;5.60;;;;;;;0.14;100.00;100392.00;5016559;28;20146;-47
2022/04/01 03:09:20;;;;;;;8.25;5.30;;;;;;;0.14;100.00;100394.63;5016759;28;20022;-47
2022/04/01 03:11:46;;;;;;;6.82;5.35;;;;;;;0.12;100.00;100403.53;5016991;28;20507;-48
2022/04/01 03:14:12;;;;;;;6.47;5.00;;;;;;;0.11;100.00;100407.13;5016110;28;20152;-47
2022/04/01 03:16:41;;;;;;;7.25;5.28;;;;;;;0.12;100.00;100406.16;5014422;28;20034;-46
2022/04/01 03:19:10;;;;;;;6.55;5.05;;;;;;;0.13;100.00;100408.69;5014118;28;20041;-46
2022/04/01 03:21:40;;;;;;;5.20;4.50;;;;;;;0.12;100.00;100408.78;5016933;28;20033;-46
2022/04/01 03:24:09;;;;;;;6.25;4.65;;;;;;;0.10;100.00;100408.06;5016574;28;20551;-48
2022/04/01 03:26:34;;;;;;;6.90;4.60;;;;;;;0.10;100.00;100416.78;5016122;28;20375;-48
2022/04/01 03:28:59;;;;;;;5.97;4.88;;;;;;;0.07;100.00;100419.63;5015991;28;20025;-46
2022/04/01 03:31:25;;;;;;;6.40;4.95;;;;;;;0.07;100.00;100424.00;5014494;28;20029;-45
2022/04/01 03:33:51;;;;;;;7.07;4.85;;;;;;;0.09;100.00;100425.59;5014625;28;20239;-46
2022/04/01 03:36:17;;;;;;;7.20;5.18;;;;;;;0.10;100.00;100429.94;5015474;28;20731;-48
2022/04/01 03:38:42;;;;;;;6.55;4.90;;;;;;;0.04;100.00;100426.88;5016097;28;20032;-47
2022/04/01 03:41:08;;;;;;;6.38;4.78;;;;;;;0.02;100.00;100434.84;5015997;28;20141;-49
2022/04/01 03:43:35;;;;;;;6.55;4.80;;;;;;;0.04;100.00;100434.75;5016333;28;20038;-46
2022/04/01 03:46:13;;;;;;;6.43;4.60;;;;;;;-0.02;100.00;100428.97;5014322;28;20025;-50
2022/04/01 03:48:48;;;;;;;6.95;5.15;;;;;;;0.02;100.00;100434.84;5014456;28;20056;-46
2022/04/01 03:51:18;;;;;;;6.78;4.60;;;;;;;-0.02;100.00;100439.47;5015678;28;20061;-45
2022/04/01 03:53:54;;;;;;;8.45;4.78;;;;;;;-0.04;100.00;100440.50;5016404;28;20426;-45
2022/04/01 03:56:28;;;;;;;6.97;4.93;;;;;;;-0.04;100.00;100445.75;5014307;28;20026;-45
2022/04/01 03:58:59;;;;;;;6.32;4.70;;;;;;;-0.06;100.00;100451.09;5014999;28;20026;-45
2022/04/01 04:01:26;;;;;;;6.32;4.68;;;;;;;-0.06;100.00;100455.53;5014949;28;20037;-46
2022/04/01 04:03:52;;;;;;;6.40;5.03;;;;;;;-0.11;100.00;100458.44;5014733;28;20025;-46
2022/04/01 04:06:19;;;;;;;5.97;4.80;;;;;;;-0.13;100.00;100465.59;5014956;28;20041;-45
2022/04/01 04:08:46;;;;;;;8.38;5.43;;;;;;;-0.12;100.00;100475.16;5015957;28;20100;-46
2022/04/01 04:11:12;;;;;;;6.43;4.90;;;;;;;-0.12;100.00;100471.66;5015648;28;20485;-46
2022/04/01 04:13:38;;;;;;;6.95;4.95;;;;;;;-0.20;100.00;100475.66;5030868;28;20254;-47
2022/04/01 04:16:26;;;;;;;7.93;5.50;;;;;;;-0.14;100.00;100478.81;5012210;28;20037;-45
2022/04/01 04:18:58;;;;;;;7.10;5.10;;;;;;;-0.14;100.00;100482.25;5014305;28;20034;-45
2022/04/01 04:21:29;;;;;;;7.07;5.40;;;;;;;-0.16;100.00;100492.03;5015953;28;20017;-47
2022/04/01 04:24:01;;;;;;;8.48;6.40;;;;;;;-0.20;100.00;100485.31;5013987;28;20463;-49
2022/04/01 04:26:42;;;;;;;7.85;5.72;;;;;;;-0.22;100.00;100490.66;5014791;28;20053;-47
2022/04/01 04:29:09;;;;;;;;;;;;;;;-0.16;100.00;100491.19;5013977;28;20090;-45
2022/04/01 04:31:36;;;;;;;7.07;5.45;;;;;;;-0.22;100.00;100497.66;5014041;28;20161;-46
2022/04/01 04:34:04;;;;;;;9.73;6.32;;;;;;;-0.25;100.00;100497.88;4997214;28;20314;-49
2022/04/01 04:36:39;;;;;;;7.53;5.93;;;;;;;-0.24;100.00;100507.44;4998454;28;20053;-48
2022/04/01 04:39:07;;;;;;;8.25;5.43;;;;;;;-0.23;100.00;100509.13;5014644;28;20341;-47
2022/04/01 04:41:33;;;;;;;8.52;5.65;;;;;;;-0.23;100.00;100514.38;5014513;28;20044;-47
2022/04/01 04:43:59;;;;;;;7.45;5.20;;;;;;;-0.22;100.00;100510.78;5014688;28;20104;-50
2022/04/01 04:46:26;;;;;;;10.02;5.18;;;;;;;-0.23;100.00;100517.00;5013763;28;20044;-46
2022/04/01 04:48:54;;;;;;;7.15;5.35;;;;;;;-0.21;100.00;100526.44;5013563;28;20700;-47
2022/04/01 04:51:23;;;;;;;7.63;5.22;;;;;;;-0.21;100.00;100525.59;5014179;28;20021;-49
2022/04/01 04:53:49;;;;;;;7.03;5.38;;;;;;;-0.17;100.00;100532.34;5012129;28;20087;-46
2022/04/01 04:56:16;;;;;;;7.38;5.65;;;;;;;-0.17;100.00;100536.75;5014252;28;20040;-47
2022/04/01 04:58:43;;;;;;;9.52;5.55;;;;;;;-0.18;100.00;100530.66;5010053;28;20148;-47
2022/04/01 05:01:39;;;;;;;9.98;5.05;;;;;;;-0.14;100.00;100540.00;4993783;28;20462;-45
2022/04/01 05:04:29;;;;;;;6.85;5.15;;;;;;;-0.10;100.00;100548.53;5000865;28;20730;-46
2022/04/01 05:07:27;;;;;;;7.68;5.00;;;;;;;-0.09;100.00;100556.28;5004548;28;20037;-46
2022/04/01 05:10:01;;;;;;;10.57;4.82;;;;;;;-0.08;100.00;100562.41;4993729;28;20056;-49
2022/04/01 05:12:32;;;;;;;6.07;4.82;;;;;;;-0.11;100.00;100560.81;4992802;28;20025;-48
2022/04/01 05:15:09;;;;;;;8.23;5.05;;;;;;;-0.10;100.00;100566.88;4993721;28;20025;-47
2022/04/01 05:17:48;;;;;;;7.25;4.85;;;;;;;-0.11;100.00;100570.47;4993175;28;20030;-45
2022/04/01 05:20:20;;;;;;;9.32;5.20;;;;;;;-0.08;100.00;100570.28;4993084;28;20362;-48
2022/04/01 05:23:10;;;;;;;8.40;5.15;;;;;;;-0.08;100.00;100571.13;4994524;28;20132;-48
2022/04/01 05:25:46;;;;;;;8.18;5.10;;;;;;;-0.07;100.00;100579.81;4994574;28;20049;-48
2022/04/01 05:28:38;;;;;;;8.55;5.50;;;;;;;-0.11;100.00;100584.44;4993447;28;20037;-45
2022/04/01 05:31:23;;;;;;;6.80;5.05;;;;;;;-0.12;100.00;100598.53;4998935;28;20049;-50
2022/04/01 05:33:57;;;;;;;6.32;4.28;;;;;;;-0.11;100.00;100592.31;5010256;28;20052;-46
2022/04/01 05:36:23;;;;;;;6.75;4.97;;;;;;;-0.14;100.00;100600.38;5013895;28;20468;-45
2022/04/01 05:38:49;;;;;;;8.18;4.88;;;;;;;-0.16;100.00;100589.13;4999912;28;20366;-49
2022/04/01 05:41:19;;;;;;;8.15;5.13;;;;;;;-0.06;100.00;100607.78;4994264;28;20022;-46
2022/04/01 05:43:50;;;;;;;7.38;4.65;;;;;;;-0.09;100.00;100602.72;5011120;28;20029;-48
2022/04/01 05:46:16;;;;;;;6.50;4.90;;;;;;;-0.12;100.00;100613.41;4999885;28;20578;-44
2022/04/01 05:48:42;;;;;;;6.38;5.22;;;;;;;-0.10;100.00;100627.25;5010784;28;20033;-47
2022/04/01 05:51:11;;;;;;;8.45;4.75;;;;;;;-0.09;100.00;100632.41;5013522;28;20378;-48
2022/04/01 05:53:37;;;;;;;7.10;5.03;;;;;;;-0.12;100.00;100627.38;5014365;28;20349;-46
2022/04/01 05:56:03;;;;;;;5.85;4.30;;;;;;;-0.13;100.00;100627.47;5010884;28;20044;-46
2022/04/01 05:58:29;;;;;;;6.43;4.82;;;;;;;-0.12;100.00;100637.88;5027246;28;20400;-45
2022/04/01 06:01:06;;;;;;;6.55;4.70;;;;;;;-0.13;100.00;100636.19;5007533;28;20124;-47
2022/04/01 06:03:42;;;;;;;5.90;4.10;;;;;;;-0.10;100.00;100643.88;5001207;28;20061;-46
2022/04/01 06:06:17;;;;;;;9.50;4.47;;;;;;;-0.09;100.00;100652.59;5010953;28;20037;-46
2022/04/01 06:09:04;;;;;;;6.18;4.50;;;;;;;-0.07;100.00;100655.94;5013397;28;20247;-47
2022/04/01 06:11:44;;;;;;;8.68;4.85;;;;;;;-0.06;100.00;100658.47;5013679;28;20099;-50
2022/04/01 06:14:15;;;;;;;7.70;4.20;;;;;;;-0.09;100.00;100663.91;5012253;28;20260;-45
2022/04/01 06:16:44;;;;;;;7.95;4.28;;;;;;;-0.13;100.00;100661.59;5011573;28;20033;-47
2022/04/01 06:19:23;;;;;;;6.15;4.25;;;;;;;-0.12;100.00;100668.53;5010140;28;20033;-49
2022/04/01 06:22:12;;;;;;;8.07;4.40;;;;;;;-0.11;100.00;100678.09;5001467;28;20447;-48
2022/04/01 06:25:11;;;;;;;4.75;3.75;;;;;;;-0.12;100.00;100674.63;5007389;28;20083;-47
2022/04/01 06:27:53;;;;;;;5.65;3.80;;;;;;;-0.12;100.00;100679.03;5015536;28;20026;-48
2022/04/01 06:30:21;;;;;;;5.97;4.07;;;;;;;-0.07;100.00;100700.56;5011821;28;20149;-46
2022/04/01 06:32:55;;;;;;;6.60;4.10;;;;;;;-0.05;100.00;100694.31;5013613;28;20105;-44
2022/04/01 06:35:38;;;;;;;6.13;3.75;;;;;;;0.00;100.00;100712.41;4999267;28;20096;-48
2022/04/01 06:38:05;;;;;;;5.82;3.92;;;;;;;-0.03;100.00;100705.53;5007209;28;20191;-47
2022/04/01 06:40:38;;;;;;;9.20;4.00;;;;;;;0.02;100.00;100718.41;5006367;28;20099;-46
2022/04/01 06:43:04;;;;;;;7.72;3.65;;;;;;;0.05;100.00;100717.34;5012304;28;20045;-47
2022/04/01 06:45:30;;;;;;;6.50;4.18;;;;;;;0.01;100.00;100724.56;5013530;28;20233;-46
2022/04/01 06:47:55;;;;;;;4.68;3.10;;;;;;;0.04;100.00;100723.56;5001106;28;20038;-45
2022/04/01 06:50:21;;;;;;;7.70;3.53;;;;;;;0.02;100.00;100734.16;5000087;28;20018;-47
2022/04/01 06:52:46;;;;;;;5.40;3.53;;;;;;;0.04;100.00;100731.44;4995582;28;20029;-46
2022/04/01 06:55:12;;;;;;;4.72;3.53;;;;;;;0.06;100.00;100733.00;5011504;28;20033;-45
2022/04/01 06:57:37;;;;;;;7.55;3.70;;;;;;;0.07;100.00;100737.31;4995513;28;20026;-46
2022/04/01 07:00:08;;;;;;;5.82;3.55;;;;;;;0.12;100.00;100744.91;4996652;28;20025;-46
2022/04/01 07:02:35;;;;;;;6.50;3.92;;;;;;;0.16;100.00;100749.88;4996446;28;20104;-46
2022/04/01 07:05:01;;;;;;;6.22;4.00;;;;;;;0.15;100.00;100753.44;4995122;28;20569;-43
2022/04/01 07:07:26;;;;;;;6.90;3.05;;;;;;;0.15;100.00;100755.22;4998717;28;20483;-45
2022/04/01 07:09:52;;;;;;;7.38;3.80;;;;;;;0.15;100.00;100758.69;4995503;28;20477;-43
2022/04/01 07:12:17;;;;;;;4.57;3.03;;;;;;;0.12;100.00;100755.41;4996638;28;20049;-45
2022/04/01 07:14:42;;;;;;;5.38;3.67;;;;;;;0.13;100.00;100760.56;5005130;28;20112;-47
2022/04/01 07:17:08;;;;;;;7.47;3.50;;;;;;;0.17;100.00;100767.31;5014500;28;20047;-49
2022/04/01 07:19:33;;;;;;;6.00;3.70;;;;;;;0.21;100.00;100765.34;5002926;28;20026;-49
2022/04/01 07:21:59;;;;;;;5.03;3.60;;;;;;;0.17;100.00;100755.94;4994998;28;20037;-46
2022/04/01 07:24:26;;;;;;;6.40;3.50;;;;;;;0.26;100.00;100763.28;4996431;28;20112;-46
2022/04/01 07:26:52;;;;;;;6.60;3.40;;;;;;;0.27;100.00;100774.59;4995839;28;20030;-49
2022/04/01 07:29:17;;;;;;;5.30;3.38;;;;;;;0.27;100.00;100764.97;4995104;28;20064;-46
2022/04/01 07:34:34;;;;;;;6.75;3.97;;;;;;;0.34;100.00;100774.13;4993965;28;20130;-44
2022/04/01 07:37:00;;;;;;;5.65;3.95;;;;;;;0.35;100.00;100783.69;4995506;28;20366;-45
2022/04/01 07:39:25;;;;;;;4.88;3.85;;;;;;;0.36;100.00;100793.28;4995377;28;20064;-47
2022/04/01 07:41:51;;;;;;;7.00;3.70;;;;;;;0.42;100.00;100793.81;4996439;28;20061;-45
2022/04/01 07:44:17;;;;;;;6.30;3.50;;;;;;;0.42;100.00;100804.34;4995874;28;20069;-49
2022/04/01 07:46:42;;;;;;;7.40;3.85;;;;;;;0.39;100.00;100800.13;5008964;28;20033;-47
2022/04/01 07:49:08;;;;;;;5.47;3.92;;;;;;;0.41;100.00;100795.63;4997789;28;20033;-47
2022/04/01 07:51:33;;;;;;;8.30;4.00;;;;;;;0.51;100.00;100809.00;4995619;28;20112;-48
2022/04/01 07:53:58;;;;;;;8.38;3.42;;;;;;;0.49;100.00;100811.75;4994634;28;20076;-45
2022/04/01 07:56:30;;;;;;;6.72;3.55;;;;;;;0.47;100.00;100813.59;4993362;28;20030;-49
2022/04/01 07:58:57;;;;;;;5.63;3.90;;;;;;;0.52;100.00;100814.16;5007224;28;20033;-48
2022/04/01 08:01:22;;;;;;;8.07;3.67;;;;;;;0.58;100.00;100815.56;5011930;28;20306;-47
2022/04/01 08:03:48;;;;;;;9.00;4.03;;;;;;;0.62;100.00;100819.69;5008803;28;20037;-47
2022/04/01 08:06:13;;;;;;;7.07;4.05;;;;;;;0.65;100.00;100814.22;5004127;28;20456;-50
2022/04/01 08:08:39;;;;;;;5.13;3.47;;;;;;;0.69;100.00;100822.75;5012049;28;20042;-46
2022/04/01 08:11:04;;;;;;;5.60;3.47;;;;;;;0.69;100.00;100828.84;5001790;28;20064;-48
2022/04/01 08:13:29;;;;;;;4.35;3.28;;;;;;;0.73;100.00;100829.50;4998158;28;20030;-47
2022/04/01 08:15:54;;;;;;;5.82;3.53;;;;;;;0.72;100.00;100833.09;5007486;28;20029;-47
2022/04/01 08:18:20;;;;;;;10.77;3.53;;;;;;;0.65;100.00;100842.31;5013486;28;20180;-48
2022/04/01 08:20:45;;;;;;;5.32;3.10;;;;;;;0.65;100.00;100837.88;5015038;28;20102;-47
2022/04/01 08:23:11;;;;;;;6.72;3.53;;;;;;;0.65;100.00;100856.28;5014238;28;20152;-47
2022/04/01 08:25:37;;;;;;;4.60;3.22;;;;;;;0.68;100.00;100850.84;5014311;28;20116;-46
2022/04/01 08:28:02;;;;;;;6.57;3.78;;;;;;;0.69;100.00;100849.03;5015581;28;20124;-45
2022/04/01 08:30:28;;;;;;;6.88;3.22;;;;;;;0.71;100.00;100862.94;5014522;28;20060;-48
2022/04/01 08:32:53;;;;;;;6.15;3.45;;;;;;;0.67;100.00;100864.91;5014096;28;20048;-46
2022/04/01 08:35:19;;;;;;;3.97;3.00;;;;;;;0.73;100.00;100866.28;5014086;28;20021;-48
2022/04/01 08:37:44;;;;;;;4.30;2.97;;;;;;;0.79;100.00;100875.59;5030370;28;20041;-46
2022/04/01 08:40:10;;;;;;;8.73;3.25;;;;;;;0.82;100.00;100878.03;5014983;28;20044;-48
2022/04/01 08:42:36;;;;;;;8.80;2.85;;;;;;;0.86;100.00;100882.16;5014921;28;20085;-46
2022/04/01 08:45:06;;;;;;;5.45;3.30;;;;;;;0.90;100.00;100876.59;5013623;28;20356;-45
2022/04/01 08:47:31;;;;;;;10.68;3.28;;;;;;;1.01;100.00;100893.47;5014020;28;20419;-46
2022/04/01 08:49:57;;;;;;;6.55;3.17;;;;;;;1.05;100.00;100890.56;5014636;28;20033;-46
2022/04/01 08:52:22;;;;;;;6.40;3.22;;;;;;;1.11;100.00;100905.09;5015155;28;20032;-49
2022/04/01 08:54:47;;;;;;;5.95;3.33;;;;;;;1.14;100.00;100899.66;5015614;28;20175;-47
2022/04/01 08:57:17;;;;;;;5.75;3.28;;;;;;;1.18;100.00;100903.75;5015180;28;20021;-47
2022/04/01 08:59:42;;;;;;;7.28;3.00;;;;;;;1.26;100.00;100903.28;5014710;28;20028;-48
2022/04/01 09:02:09;;;;;;;4.95;2.88;;;;;;;1.30;100.00;100912.63;5012514;28;20029;-46
2022/04/01 09:04:36;;;;;;;7.85;3.05;;;;;;;1.36;100.00;100911.38;4998971;28;20456;-47
2022/04/01 09:07:15;;;;;;;6.35;2.80;;;;;;;1.47;100.00;100915.00;4995079;28;20021;-49
2022/04/01 09:09:41;;;;;;;3.78;2.58;;;;;;;1.59;100.00;100915.97;4995123;28;20705;-45
2022/04/01 09:12:09;;;;;;;5.95;2.60;;;;;;;1.77;100.00;100913.09;4993298;28;20072;-49
2022/04/01 09:14:35;;;;;;;6.43;2.50;;;;;;;1.91;100.00;100922.69;5001836;28;20021;-46
2022/04/01 09:17:01;;;;;;;2.38;2.10;;;;;;;1.95;100.00;100911.00;5011846;28;20039;-50
2022/04/01 09:19:31;;;;;;;4.32;2.25;;;;;;;2.08;100.00;100918.94;5014168;28;20026;-48
2022/04/01 09:21:57;;;;;;;3.38;2.10;;;;;;;2.12;100.00;100918.63;5014413;28;20504;-47
2022/04/01 09:24:22;;;;;;;4.30;2.05;;;;;;;2.12;100.00;100926.53;5014558;28;20400;-46
2022/04/01 09:26:55;;;;;;;4.10;1.92;;;;;;;2.13;100.00;100925.56;5014623;28;20210;-49
2022/04/01 09:29:20;;;;;;;3.40;2.10;;;;;;;2.24;100.00;100930.94;5013959;28;20472;-50
2022/04/01 09:31:52;;;;;;;3.17;2.10;;;;;;;2.23;100.00;100928.41;5012457;28;20332;-51
2022/04/01 09:34:17;;;;;;;2.03;1.45;;;;;;;2.22;100.00;100931.97;5014043;28;20354;-48
2022/04/01 09:36:44;;;;;;;2.97;1.90;;;;;;;2.17;100.00;100937.59;5014505;28;20049;-49
2022/04/01 09:39:16;;;;;;;4.00;1.80;;;;;;;2.23;100.00;100938.94;4996219;28;20400;-49
2022/04/01 09:41:43;;;;;;;3.83;2.03;;;;;;;2.26;100.00;100943.16;5014790;28;20476;-48
2022/04/01 09:44:18;;;;;;;2.95;1.50;;;;;;;2.20;100.00;100944.44;5014520;28;20109;-48
2022/04/01 09:46:50;;;;;;;4.15;1.80;;;;;;;2.08;100.00;100945.28;5012265;28;20515;-48
2022/04/01 09:49:42;;;;;;;4.88;1.98;;;;;;;2.05;100.00;100949.81;5013856;28;20652;-51
2022/04/01 09:52:12;;;;;;;3.45;1.95;;;;;;;2.02;100.00;100949.13;5014481;28;20025;-49
2022/04/01 09:54:54;;;;;;;2.60;2.00;;;;;;;2.04;100.00;100950.75;4993911;28;20049;-46
2022/04/01 09:57:23;;;;;;;5.18;2.15;;;;;;;2.03;100.00;100951.66;4994380;28;20369;-47
2022/04/01 09:59:50;;;;;;;3.83;1.95;;;;;;;2.04;100.00;100944.63;4992991;28;20030;-47
2022/04/01 10:02:16;;;;;;;3.58;2.10;;;;;;;2.07;100.00;100956.75;4992892;28;20480;-45
2022/04/01 10:04:41;;;;;;;4.53;2.10;;;;;;;2.05;100.00;100949.81;4994178;28;20025;-50
2022/04/01 10:07:07;;;;;;;3.70;1.80;;;;;;;2.06;100.00;100942.72;4993738;28;20175;-47
2022/04/01 10:09:34;;;;;;;5.20;2.00;;;;;;;2.18;100.00;100941.06;4993501;28;20068;-47
2022/04/01 10:12:05;;;;;;;3.47;1.88;;;;;;;2.32;100.00;100946.22;4993591;28;20318;-48
2022/04/01 10:14:32;;;;;;;4.55;1.90;;;;;;;2.35;100.00;100945.19;4999325;28;20336;-49
2022/04/01 10:17:00;;;;;;;3.15;1.95;;;;;;;2.38;100.00;100940.53;5011717;28;20090;-48
2022/04/01 10:19:29;;;;;;;5.47;2.20;;;;;;;2.40;100.00;100953.63;5013242;28;20595;-47
2022/04/01 10:21:55;;;;;;;3.47;2.05;;;;;;;2.51;100.00;100945.81;5012730;28;20018;-49
2022/04/01 10:24:40;;;;;;;4.68;2.35;;;;;;;2.61;100.00;100952.13;5013442;28;20426;-50
2022/04/01 10:27:33;;;;;;;6.18;2.45;;;;;;;2.68;100.00;100952.56;5013660;28;20494;-49
2022/04/01 10:29:59;;;;;;;4.50;2.55;;;;;;;2.66;100.00;100950.94;5010602;28;20111;-46
2022/04/01 10:32:30;;;;;;;4.82;2.60;;;;;;;2.69;100.00;100954.22;5027455;28;20021;-47
2022/04/01 10:34:58;;;;;;;4.57;2.67;;;;;;;2.81;100.00;100952.50;5004265;28;20034;-49
2022/04/01 10:37:25;;;;;;;3.90;2.47;;;;;;;2.79;98.86;100957.91;4994203;28;20241;-46
2022/04/01 10:39:54;;;;;;;7.22;2.70;;;;;;;2.76;98.62;100959.91;4993626;28;20313;-45
2022/04/01 10:42:25;;;;;;;5.30;2.50;;;;;;;2.73;99.29;100960.13;4999557;28;20041;-47
2022/04/01 10:44:56;;;;;;;4.38;2.70;;;;;;;2.69;100.00;100950.75;5012796;28;20025;-46
2022/04/01 10:47:24;;;;;;;5.43;2.97;;;;;;;2.68;100.00;100959.59;5012885;28;20033;-47
2022/04/01 10:52:34;;;;;;;4.70;2.80;;;;;;;2.58;100.00;100957.63;5013169;28;20372;-48
2022/04/01 10:55:07;;;;;;;4.05;2.72;;;;;;;2.68;100.00;100964.88;5012587;28;20477;-49
2022/04/01 10:57:45;;;;;;;4.85;3.20;;;;;;;2.67;100.00;100977.22;5012012;28;20045;-46
2022/04/01 11:00:15;;;;;;;5.30;3.10;;;;;;;2.71;100.00;100970.78;5010443;28;20220;-46
2022/04/01 11:02:42;;;;;;;7.28;3.17;;;;;;;2.75;100.00;100976.66;5012654;28;20367;-46
2022/04/01 11:05:22;;;;;;;7.65;3.70;;;;;;;2.67;100.00;100973.75;5013073;28;20020;-46
2022/04/01 11:08:15;;;;;;;6.88;3.50;;;;;;;2.65;100.00;100983.53;5017508;28;20063;-46
2022/04/01 11:11:08;;;;;;;5.22;3.45;;;;;;;2.62;100.00;100979.34;5016950;28;20606;-46
2022/04/01 11:13:35;;;;;;;8.23;3.20;;;;;;;2.59;100.00;100990.91;5017826;28;20240;-47
2022/04/01 11:16:22;;;;;;;7.93;4.03;;;;;;;2.63;100.00;100998.63;5014785;28;20043;-49
2022/04/01 11:19:13;;;;;;;7.05;3.40;;;;;;;2.68;100.00;100988.59;5017587;28;20069;-49
2022/04/01 11:21:39;;;;;;;5.55;3.95;;;;;;;2.64;100.00;100997.69;5017689;28;20037;-47
2022/04/01 11:24:31;;;;;;;7.55;3.72;;;;;;;2.57;100.00;100999.91;5017129;28;20518;-47
2022/04/01 11:27:26;;;;;;;7.45;3.85;;;;;;;2.58;100.00;100993.66;5014864;28;20061;-48
2022/04/01 11:30:13;;;;;;;7.43;3.97;;;;;;;2.55;100.00;101000.00;5015641;28;20145;-45
2022/04/01 11:32:39;;;;;;;4.75;3.45;;;;;;;2.56;100.00;100996.44;5016028;28;20112;-47
2022/04/01 11:35:05;;;;;;;9.35;4.20;;;;;;;2.52;100.00;101009.91;5016587;28;20555;-45
2022/04/01 11:37:45;;;;;;;7.03;3.88;;;;;;;2.52;100.00;101004.66;5017049;28;20465;-49
2022/04/01 11:40:25;;;;;;;9.88;3.83;;;;;;;2.47;100.00;101004.94;5016665;28;20052;-47
2022/04/01 11:42:57;;;;;;;10.70;5.00;;;;;;;2.48;100.00;101006.66;5015097;28;20025;-46
2022/04/01 11:45:24;;;;;;;7.38;4.35;;;;;;;2.44;100.00;100999.88;5016282;28;20034;-45